createdAt,value
2023-03-30T00:00:45.500Z,11.63
2023-03-30T00:01:45.452Z,11.64
2023-03-30T00:02:45.590Z,11.63
2023-03-30T00:03:45.862Z,11.63
2023-03-30T00:04:45.537Z,11.64
2023-03-30T00:05:45.424Z,11.64
2023-03-30T00:06:45.375Z,11.66
2023-03-30T00:07:45.400Z,11.63
2023-03-30T00:08:45.363Z,11.66
2023-03-30T00:09:45.366Z,11.67
2023-03-30T00:10:45.352Z,11.66
2023-03-30T00:11:45.345Z,11.67
2023-03-30T00:12:45.341Z,11.69
2023-03-30T00:13:45.447Z,11.69
2023-03-30T00:14:45.267Z,11.69
2023-03-30T00:15:45.290Z,11.69
2023-03-30T00:16:45.321Z,11.67
2023-03-30T00:17:45.276Z,11.69
2023-03-30T00:18:45.288Z,11.69
2023-03-30T00:19:45.224Z,11.69
2023-03-30T00:20:45.271Z,11.70
2023-03-30T00:21:45.232Z,11.70
2023-03-30T00:22:45.210Z,11.74
2023-03-30T00:23:45.217Z,11.75
2023-03-30T00:24:45.175Z,11.75
2023-03-30T00:25:45.146Z,11.75
2023-03-30T00:26:45.157Z,11.77
2023-03-30T00:27:45.115Z,11.78
2023-03-30T00:28:45.119Z,11.78
2023-03-30T00:29:45.090Z,11.78
2023-03-30T00:30:45.091Z,11.78
2023-03-30T00:31:45.184Z,11.78
2023-03-30T00:32:45.078Z,11.79
2023-03-30T00:33:47.082Z,11.81
2023-03-30T00:34:45.037Z,11.81
2023-03-30T00:35:45.044Z,11.78
2023-03-30T00:36:45.068Z,11.79
2023-03-30T00:37:44.968Z,11.78
2023-03-30T00:38:44.969Z,11.78
2023-03-30T00:39:44.954Z,11.78
2023-03-30T00:40:44.936Z,11.77
2023-03-30T00:41:44.944Z,11.75
2023-03-30T00:42:44.926Z,11.75
2023-03-30T00:43:44.945Z,11.72
2023-03-30T00:44:44.911Z,11.74
2023-03-30T00:45:44.932Z,11.72
2023-03-30T00:46:44.897Z,11.70
2023-03-30T00:47:44.928Z,11.70
2023-03-30T00:48:44.865Z,11.74
2023-03-30T00:49:44.831Z,11.72
2023-03-30T00:50:44.851Z,11.74
2023-03-30T00:51:44.844Z,11.75
2023-03-30T00:52:44.787Z,11.78
2023-03-30T00:53:44.756Z,11.79
2023-03-30T00:54:44.743Z,11.81
2023-03-30T00:55:44.763Z,11.81
2023-03-30T00:56:44.793Z,11.82
2023-03-30T00:57:44.698Z,11.84
2023-03-30T00:58:44.839Z,11.85
2023-03-30T00:59:44.681Z,11.85
2023-03-30T01:00:44.688Z,11.85
2023-03-30T01:01:44.750Z,11.85
2023-03-30T01:02:44.747Z,11.88
2023-03-30T01:03:44.754Z,11.93
2023-03-30T01:04:44.632Z,11.96
2023-03-30T01:05:44.592Z,11.94
2023-03-30T01:06:44.651Z,11.96
2023-03-30T01:07:44.606Z,11.97
2023-03-30T01:08:44.604Z,11.98
2023-03-30T01:09:44.615Z,12.00
2023-03-30T01:10:44.547Z,11.98
2023-03-30T01:11:44.575Z,12.00
2023-03-30T01:12:44.515Z,12.00
2023-03-30T01:13:44.610Z,12.00
2023-03-30T01:14:44.512Z,12.00
2023-03-30T01:15:44.521Z,12.01
2023-03-30T01:16:44.470Z,12.04
2023-03-30T01:17:44.513Z,12.05
2023-03-30T01:18:44.443Z,12.05
2023-03-30T01:19:44.430Z,12.07
2023-03-30T01:20:44.447Z,12.08
2023-03-30T01:21:44.412Z,12.08
2023-03-30T01:22:44.399Z,12.13
2023-03-30T01:23:44.453Z,12.15
2023-03-30T01:24:44.388Z,12.15
2023-03-30T01:25:44.414Z,12.15
2023-03-30T01:26:44.328Z,12.16
2023-03-30T01:27:44.309Z,12.18
2023-03-30T01:28:44.318Z,12.19
2023-03-30T01:29:44.299Z,12.21
2023-03-30T01:30:44.304Z,12.23
2023-03-30T01:31:44.284Z,12.22
2023-03-30T01:32:44.294Z,12.25
2023-03-30T01:33:44.293Z,12.26
2023-03-30T01:34:44.247Z,12.29
2023-03-30T01:35:44.322Z,12.29
2023-03-30T01:36:44.195Z,12.31
2023-03-30T01:37:44.239Z,12.34
2023-03-30T01:38:44.176Z,12.33
2023-03-30T01:39:44.199Z,12.34
2023-03-30T01:40:44.208Z,12.36
2023-03-30T01:41:44.143Z,12.37
2023-03-30T01:42:44.178Z,12.40
2023-03-30T01:43:44.248Z,12.41
2023-03-30T01:44:44.127Z,12.40
2023-03-30T01:45:44.124Z,12.40
2023-03-30T01:46:44.114Z,12.40
2023-03-30T01:47:44.084Z,12.40
2023-03-30T01:48:44.091Z,12.38
2023-03-30T01:49:44.008Z,12.40
2023-03-30T01:50:44.030Z,12.40
2023-03-30T01:51:43.992Z,12.38
2023-03-30T01:52:43.985Z,12.36
2023-03-30T01:53:44.023Z,12.37
2023-03-30T01:54:43.990Z,12.37
2023-03-30T01:55:43.956Z,12.34
2023-03-30T01:56:44.011Z,12.37
2023-03-30T01:57:43.940Z,12.36
2023-03-30T01:58:43.922Z,12.36
2023-03-30T01:59:43.892Z,12.36
2023-03-30T02:00:43.902Z,12.37
2023-03-30T02:01:43.893Z,12.36
2023-03-30T02:02:44.077Z,12.36
2023-03-30T02:03:43.973Z,12.34
2023-03-30T02:04:43.863Z,12.36
2023-03-30T02:05:43.829Z,12.37
2023-03-30T02:06:43.832Z,12.34
2023-03-30T02:07:43.800Z,12.34
2023-03-30T02:08:43.785Z,12.36
2023-03-30T02:09:43.768Z,12.36
2023-03-30T02:10:43.749Z,12.34
2023-03-30T02:11:43.724Z,12.36
2023-03-30T02:12:43.753Z,12.37
2023-03-30T02:13:43.759Z,12.36
2023-03-30T02:14:43.731Z,12.37
2023-03-30T02:15:43.698Z,12.37
2023-03-30T02:16:43.724Z,12.37
2023-03-30T02:17:43.726Z,12.38
2023-03-30T02:18:43.676Z,12.37
2023-03-30T02:19:43.640Z,12.38
2023-03-30T02:20:43.614Z,12.38
2023-03-30T02:21:43.609Z,12.40
2023-03-30T02:22:43.593Z,12.41
2023-03-30T02:23:43.625Z,12.43
2023-03-30T02:24:43.597Z,12.44
2023-03-30T02:25:43.620Z,12.48
2023-03-30T02:26:43.532Z,12.48
2023-03-30T02:27:43.546Z,12.48
2023-03-30T02:28:43.540Z,12.49
2023-03-30T02:29:43.501Z,12.52
2023-03-30T02:30:43.505Z,12.54
2023-03-30T02:31:43.591Z,12.56
2023-03-30T02:32:43.532Z,12.56
2023-03-30T02:33:43.489Z,12.58
2023-03-30T02:34:43.469Z,12.58
2023-03-30T02:35:43.433Z,12.58
2023-03-30T02:36:43.434Z,12.56
2023-03-30T02:37:43.443Z,12.58
2023-03-30T02:38:43.401Z,12.58
2023-03-30T02:39:43.402Z,12.58
2023-03-30T02:40:43.385Z,12.55
2023-03-30T02:41:43.346Z,12.55
2023-03-30T02:42:43.360Z,12.56
2023-03-30T02:43:43.344Z,12.58
2023-03-30T02:44:43.326Z,12.59
2023-03-30T02:45:43.302Z,12.61
2023-03-30T02:46:43.273Z,12.63
2023-03-30T02:47:43.289Z,12.63
2023-03-30T02:48:43.290Z,12.66
2023-03-30T02:49:43.255Z,12.62
2023-03-30T02:50:43.219Z,12.63
2023-03-30T02:51:43.212Z,12.62
2023-03-30T02:52:43.212Z,12.59
2023-03-30T02:53:43.263Z,12.59
2023-03-30T02:54:43.172Z,12.59
2023-03-30T02:55:43.168Z,12.59
2023-03-30T02:56:43.207Z,12.59
2023-03-30T02:57:43.147Z,12.59
2023-03-30T02:58:43.113Z,12.61
2023-03-30T02:59:43.151Z,12.62
2023-03-30T03:00:43.136Z,12.58
2023-03-30T03:01:43.133Z,12.59
2023-03-30T03:02:43.180Z,12.61
2023-03-30T03:03:43.223Z,12.61
2023-03-30T03:04:43.042Z,12.59
2023-03-30T03:05:43.068Z,12.58
2023-03-30T03:06:43.033Z,12.55
2023-03-30T03:07:43.010Z,12.55
2023-03-30T03:08:43.022Z,12.55
2023-03-30T03:09:43.001Z,12.56
2023-03-30T03:10:43.000Z,12.56
2023-03-30T03:11:42.932Z,12.55
2023-03-30T03:12:42.938Z,12.54
2023-03-30T03:13:42.937Z,12.56
2023-03-30T03:14:42.905Z,12.55
2023-03-30T03:15:42.905Z,12.56
2023-03-30T03:16:42.998Z,12.56
2023-03-30T03:17:42.928Z,12.56
2023-03-30T03:18:42.880Z,12.59
2023-03-30T03:19:42.831Z,12.59
2023-03-30T03:20:42.888Z,12.59
2023-03-30T03:21:42.865Z,12.61
2023-03-30T03:22:42.814Z,12.62
2023-03-30T03:23:42.827Z,12.66
2023-03-30T03:24:42.774Z,12.67
2023-03-30T03:25:42.790Z,12.70
2023-03-30T03:26:42.766Z,12.69
2023-03-30T03:27:42.730Z,12.70
2023-03-30T03:28:42.767Z,12.69
2023-03-30T03:29:42.771Z,12.67
2023-03-30T03:30:42.758Z,12.69
2023-03-30T03:31:42.845Z,12.66
2023-03-30T03:32:42.895Z,12.62
2023-03-30T03:33:42.677Z,12.62
2023-03-30T03:34:42.666Z,12.61
2023-03-30T03:35:42.661Z,12.56
2023-03-30T03:36:42.673Z,12.56
2023-03-30T03:37:42.621Z,12.52
2023-03-30T03:38:42.640Z,12.52
2023-03-30T03:39:42.641Z,12.51
2023-03-30T03:40:42.574Z,12.51
2023-03-30T03:41:42.570Z,12.49
2023-03-30T03:42:42.546Z,12.48
2023-03-30T03:43:42.557Z,12.48
2023-03-30T03:44:42.601Z,12.44
2023-03-30T03:45:42.499Z,12.46
2023-03-30T03:46:42.568Z,12.46
2023-03-30T03:47:42.520Z,12.48
2023-03-30T03:48:42.480Z,12.48
2023-03-30T03:49:42.453Z,12.49
2023-03-30T03:50:42.520Z,12.49
2023-03-30T03:51:42.417Z,12.48
2023-03-30T03:52:42.436Z,12.48
2023-03-30T03:53:42.441Z,12.48
2023-03-30T03:54:42.379Z,12.49
2023-03-30T03:55:42.375Z,12.49
2023-03-30T03:56:42.405Z,12.49
2023-03-30T03:57:42.337Z,12.49
2023-03-30T03:58:42.370Z,12.49
2023-03-30T03:59:42.309Z,12.48
2023-03-30T04:00:42.392Z,12.48
2023-03-30T04:01:42.335Z,12.48
2023-03-30T04:02:42.453Z,12.48
2023-03-30T04:03:42.290Z,12.46
2023-03-30T04:04:42.321Z,12.43
2023-03-30T04:05:42.238Z,12.43
2023-03-30T04:06:42.257Z,12.41
2023-03-30T04:07:42.234Z,12.40
2023-03-30T04:08:42.249Z,12.41
2023-03-30T04:09:42.184Z,12.40
2023-03-30T04:10:42.196Z,12.40
2023-03-30T04:12:38.249Z,12.41
2023-03-30T04:13:38.928Z,12.38
2023-03-30T04:14:38.252Z,12.40
2023-03-30T04:15:38.142Z,12.38
2023-03-30T04:16:38.145Z,12.38
2023-03-30T04:17:38.160Z,12.38
2023-03-30T04:18:38.127Z,12.37
2023-03-30T04:19:38.042Z,12.37
2023-03-30T04:20:38.083Z,12.34
2023-03-30T04:21:38.054Z,12.34
2023-03-30T04:22:38.106Z,12.33
2023-03-30T04:23:38.101Z,12.33
2023-03-30T04:24:38.077Z,12.33
2023-03-30T04:25:38.068Z,12.30
2023-03-30T04:26:38.019Z,12.30
2023-03-30T04:27:37.982Z,12.31
2023-03-30T04:28:38.034Z,12.30
2023-03-30T04:29:37.991Z,12.31
2023-03-30T04:30:37.985Z,12.33
2023-03-30T04:31:38.095Z,12.34
2023-03-30T04:32:37.993Z,12.33
2023-03-30T04:33:37.984Z,12.34
2023-03-30T04:34:37.876Z,12.37
2023-03-30T04:35:37.947Z,12.40
2023-03-30T04:36:37.936Z,12.41
2023-03-30T04:37:37.919Z,12.46
2023-03-30T04:38:37.942Z,12.49
2023-03-30T04:39:37.911Z,12.49
2023-03-30T04:40:37.833Z,12.52
2023-03-30T04:41:37.848Z,12.52
2023-03-30T04:42:37.814Z,12.55
2023-03-30T04:43:37.836Z,12.54
2023-03-30T04:44:37.841Z,12.56
2023-03-30T04:45:37.842Z,12.58
2023-03-30T04:46:37.757Z,12.59
2023-03-30T04:47:37.791Z,12.61
2023-03-30T04:48:37.765Z,12.62
2023-03-30T04:49:37.805Z,12.66
2023-03-30T04:50:37.679Z,12.69
2023-03-30T04:51:37.714Z,12.76
2023-03-30T04:52:37.648Z,12.80
2023-03-30T04:53:37.710Z,12.85
2023-03-30T04:54:37.630Z,12.91
2023-03-30T04:55:37.644Z,12.95
2023-03-30T04:56:37.655Z,12.98
2023-03-30T04:57:37.562Z,12.98
2023-03-30T04:58:37.600Z,12.99
2023-03-30T04:59:37.572Z,12.99
2023-03-30T05:00:37.573Z,12.98
2023-03-30T05:01:37.556Z,12.99
2023-03-30T05:02:37.600Z,12.98
2023-03-30T05:03:37.608Z,12.98
2023-03-30T05:04:37.501Z,12.96
2023-03-30T05:05:37.484Z,12.96
2023-03-30T05:06:37.470Z,12.95
2023-03-30T05:07:37.486Z,12.94
2023-03-30T05:08:39.917Z,12.95
2023-03-30T05:09:37.439Z,12.94
2023-03-30T05:10:37.460Z,12.92
2023-03-30T05:11:37.394Z,12.91
2023-03-30T05:12:37.388Z,12.89
2023-03-30T05:13:37.383Z,12.88
2023-03-30T05:14:37.401Z,12.87
2023-03-30T05:15:37.363Z,12.85
2023-03-30T05:16:37.454Z,12.84
2023-03-30T05:17:37.378Z,12.85
2023-03-30T05:18:37.317Z,12.84
2023-03-30T05:19:37.278Z,12.81
2023-03-30T05:20:37.318Z,12.81
2023-03-30T05:21:37.283Z,12.79
2023-03-30T05:22:37.290Z,12.77
2023-03-30T05:23:37.244Z,12.76
2023-03-30T05:24:37.227Z,12.77
2023-03-30T05:25:37.229Z,12.77
2023-03-30T05:26:37.263Z,12.76
2023-03-30T05:27:37.165Z,12.76
2023-03-30T05:28:37.213Z,12.76
2023-03-30T05:29:37.175Z,12.74
2023-03-30T05:30:37.158Z,12.76
2023-03-30T05:31:37.186Z,12.74
2023-03-30T05:32:37.192Z,12.74
2023-03-30T05:33:37.151Z,12.73
2023-03-30T05:34:37.155Z,12.74
2023-03-30T05:35:37.085Z,12.71
2023-03-30T05:36:37.108Z,12.71
2023-03-30T05:37:37.049Z,12.71
2023-03-30T05:38:37.076Z,12.70
2023-03-30T05:39:37.029Z,12.71
2023-03-30T05:40:37.014Z,12.69
2023-03-30T05:41:37.016Z,12.70
2023-03-30T05:42:37.008Z,12.69
2023-03-30T05:43:36.981Z,12.69
2023-03-30T05:44:36.961Z,12.70
2023-03-30T05:45:36.998Z,12.70
2023-03-30T05:46:37.071Z,12.70
2023-03-30T05:47:36.948Z,12.71
2023-03-30T05:48:36.932Z,12.71
2023-03-30T05:49:36.882Z,12.73
2023-03-30T05:50:36.900Z,12.73
2023-03-30T05:51:36.861Z,12.73
2023-03-30T05:52:36.859Z,12.74
2023-03-30T05:53:36.867Z,12.76
2023-03-30T05:54:36.850Z,12.76
2023-03-30T05:55:36.823Z,12.79
2023-03-30T05:56:36.829Z,12.81
2023-03-30T05:57:36.839Z,12.85
2023-03-30T05:58:36.801Z,12.87
2023-03-30T05:59:36.769Z,12.89
2023-03-30T06:00:37.023Z,12.92
2023-03-30T06:01:36.731Z,12.92
2023-03-30T06:02:36.817Z,12.95
2023-03-30T06:03:37.031Z,12.95
2023-03-30T06:04:36.779Z,12.96
2023-03-30T06:05:36.712Z,12.98
2023-03-30T06:06:36.688Z,13.01
2023-03-30T06:07:36.680Z,13.04
2023-03-30T06:08:36.724Z,13.10
2023-03-30T06:09:36.641Z,13.14
2023-03-30T06:10:36.682Z,13.21
2023-03-30T06:11:36.640Z,13.22
2023-03-30T06:12:36.644Z,13.28
2023-03-30T06:13:36.584Z,13.31
2023-03-30T06:14:36.618Z,13.36
2023-03-30T06:15:36.577Z,13.43
2023-03-30T06:16:36.668Z,13.53
2023-03-30T06:17:36.615Z,13.54
2023-03-30T06:18:36.613Z,13.55
2023-03-30T06:19:36.550Z,13.61
2023-03-30T06:20:36.523Z,13.66
2023-03-30T06:21:36.535Z,13.65
2023-03-30T06:22:36.513Z,13.66
2023-03-30T06:23:36.485Z,13.62
2023-03-30T06:24:36.473Z,13.59
2023-03-30T06:25:36.426Z,13.61
2023-03-30T06:26:36.452Z,13.61
2023-03-30T06:27:36.417Z,13.62
2023-03-30T06:28:36.416Z,13.62
2023-03-30T06:29:36.399Z,13.62
2023-03-30T06:30:36.396Z,13.63
2023-03-30T06:31:36.418Z,13.63
2023-03-30T06:32:36.377Z,13.61
2023-03-30T06:33:37.490Z,13.57
2023-03-30T06:34:36.341Z,13.55
2023-03-30T06:35:36.358Z,13.57
2023-03-30T06:36:44.964Z,13.55
2023-03-30T06:37:37.320Z,13.55
2023-03-30T06:38:36.298Z,13.54
2023-03-30T06:39:36.293Z,13.54
2023-03-30T06:40:36.304Z,13.57
2023-03-30T06:41:36.244Z,13.54
2023-03-30T06:42:36.225Z,13.53
2023-03-30T06:43:36.269Z,13.50
2023-03-30T06:44:36.227Z,13.51
2023-03-30T06:45:36.290Z,13.51
2023-03-30T06:46:36.190Z,13.53
2023-03-30T06:47:36.200Z,13.54
2023-03-30T06:48:36.144Z,13.61
2023-03-30T06:49:38.892Z,13.66
2023-03-30T06:50:36.142Z,13.66
2023-03-30T06:51:36.116Z,13.71
2023-03-30T06:52:36.099Z,13.71
2023-03-30T06:53:36.123Z,13.72
2023-03-30T06:54:36.114Z,13.75
2023-03-30T06:55:36.072Z,13.73
2023-03-30T06:56:36.058Z,13.72
2023-03-30T06:57:36.053Z,13.72
2023-03-30T06:58:36.066Z,13.72
2023-03-30T06:59:36.042Z,13.73
2023-03-30T07:00:36.023Z,13.75
2023-03-30T07:01:36.190Z,13.75
2023-03-30T07:02:36.095Z,13.79
2023-03-30T07:03:35.965Z,13.79
2023-03-30T07:04:36.005Z,13.81
2023-03-30T07:05:35.920Z,13.83
2023-03-30T07:06:35.974Z,13.84
2023-03-30T07:07:35.911Z,13.84
2023-03-30T07:08:35.952Z,13.86
2023-03-30T07:09:35.942Z,13.86
2023-03-30T07:10:35.925Z,13.86
2023-03-30T07:11:35.865Z,13.91
2023-03-30T07:12:35.901Z,13.91
2023-03-30T07:13:35.854Z,13.96
2023-03-30T07:14:35.815Z,13.98
2023-03-30T07:15:35.819Z,13.99
2023-03-30T07:16:35.817Z,14.02
2023-03-30T07:17:35.818Z,14.05
2023-03-30T07:18:35.788Z,14.09
2023-03-30T07:19:35.762Z,14.11
2023-03-30T07:20:35.835Z,14.12
2023-03-30T07:21:35.746Z,14.11
2023-03-30T07:22:35.737Z,14.11
2023-03-30T07:23:35.738Z,14.13
2023-03-30T07:24:35.728Z,14.16
2023-03-30T07:25:35.692Z,14.16
2023-03-30T07:26:35.647Z,14.16
2023-03-30T07:27:35.681Z,14.17
2023-03-30T07:28:35.683Z,14.16
2023-03-30T07:29:35.622Z,14.17
2023-03-30T07:30:35.668Z,14.19
2023-03-30T07:31:35.666Z,14.20
2023-03-30T07:32:35.666Z,14.23
2023-03-30T07:33:35.736Z,14.21
2023-03-30T07:34:35.599Z,14.21
2023-03-30T07:35:35.589Z,14.24
2023-03-30T07:36:35.515Z,14.26
2023-03-30T07:37:35.538Z,14.30
2023-03-30T07:38:35.507Z,14.36
2023-03-30T07:39:35.546Z,14.39
2023-03-30T07:40:35.614Z,14.36
2023-03-30T07:41:35.697Z,14.34
2023-03-30T07:42:35.728Z,14.34
2023-03-30T07:43:35.470Z,14.30
2023-03-30T07:44:35.515Z,14.27
2023-03-30T07:45:35.589Z,14.29
2023-03-30T07:46:35.565Z,14.31
2023-03-30T07:47:36.108Z,14.31
2023-03-30T07:48:35.986Z,14.30
2023-03-30T07:49:36.605Z,14.31
2023-03-30T07:50:35.442Z,14.35
2023-03-30T07:51:35.392Z,14.35
2023-03-30T07:52:35.916Z,14.36
2023-03-30T07:53:35.307Z,14.42
2023-03-30T07:54:35.326Z,14.44
2023-03-30T07:55:35.350Z,14.45
2023-03-30T07:56:35.382Z,14.46
2023-03-30T07:57:35.257Z,14.53
2023-03-30T07:58:35.306Z,14.57
2023-03-30T07:59:35.336Z,14.60
2023-03-30T08:00:35.423Z,14.61
2023-03-30T08:01:35.329Z,14.63
2023-03-30T08:02:35.404Z,14.63
2023-03-30T08:03:35.480Z,14.66
2023-03-30T08:04:35.221Z,14.63
2023-03-30T08:05:35.184Z,14.67
2023-03-30T08:06:35.194Z,14.67
2023-03-30T08:07:35.272Z,14.69
2023-03-30T08:08:35.185Z,14.67
2023-03-30T08:09:35.117Z,14.67
2023-03-30T08:10:35.168Z,14.69
2023-03-30T08:11:35.068Z,14.71
2023-03-30T08:12:35.092Z,14.75
2023-03-30T08:13:35.063Z,14.75
2023-03-30T08:14:35.019Z,14.75
2023-03-30T08:15:35.051Z,14.79
2023-03-30T08:16:35.069Z,14.75
2023-03-30T08:17:35.071Z,14.74
2023-03-30T08:18:35.017Z,14.75
2023-03-30T08:19:35.000Z,14.71
2023-03-30T08:20:35.029Z,14.71
2023-03-30T08:21:34.949Z,14.66
2023-03-30T08:22:34.934Z,14.63
2023-03-30T08:23:34.949Z,14.59
2023-03-30T08:24:34.944Z,14.54
2023-03-30T08:25:34.943Z,14.56
2023-03-30T08:26:34.896Z,14.53
2023-03-30T08:27:34.896Z,14.52
2023-03-30T08:28:34.856Z,14.52
2023-03-30T08:29:34.878Z,14.44
2023-03-30T08:30:34.863Z,14.31
2023-03-30T08:31:34.950Z,14.24
2023-03-30T08:32:34.808Z,14.21
2023-03-30T08:33:34.857Z,14.13
2023-03-30T08:34:36.180Z,14.08
2023-03-30T08:35:34.852Z,14.02
2023-03-30T08:36:34.774Z,13.98
2023-03-30T08:37:34.778Z,13.93
2023-03-30T08:38:34.745Z,13.90
2023-03-30T08:39:34.745Z,13.88
2023-03-30T08:40:34.718Z,13.84
2023-03-30T08:41:34.733Z,13.83
2023-03-30T08:42:34.690Z,13.76
2023-03-30T08:43:34.712Z,13.75
2023-03-30T08:44:34.683Z,13.75
2023-03-30T08:45:34.665Z,13.73
2023-03-30T08:46:34.682Z,13.79
2023-03-30T08:47:34.712Z,13.80
2023-03-30T08:48:34.676Z,13.84
2023-03-30T08:49:34.612Z,13.88
2023-03-30T08:50:34.608Z,13.91
2023-03-30T08:51:34.572Z,13.93
2023-03-30T08:52:34.561Z,13.94
2023-03-30T08:53:34.634Z,13.96
2023-03-30T08:54:34.550Z,13.96
2023-03-30T08:55:34.523Z,14.01
2023-03-30T08:56:34.530Z,14.09
2023-03-30T08:57:34.611Z,14.13
2023-03-30T08:58:34.528Z,14.13
2023-03-30T08:59:34.482Z,14.16
2023-03-30T09:00:34.433Z,14.16
2023-03-30T09:01:34.461Z,14.13
2023-03-30T09:02:36.817Z,14.12
2023-03-30T09:03:34.405Z,14.09
2023-03-30T09:04:34.413Z,14.09
2023-03-30T09:05:34.435Z,14.09
2023-03-30T09:06:34.379Z,14.09
2023-03-30T09:07:34.496Z,14.08
2023-03-30T09:08:34.522Z,14.05
2023-03-30T09:09:34.394Z,14.08
2023-03-30T09:10:34.354Z,14.09
2023-03-30T09:11:34.369Z,14.17
2023-03-30T09:12:34.310Z,14.24
2023-03-30T09:13:34.332Z,14.29
2023-03-30T09:14:34.267Z,14.35
2023-03-30T09:15:34.317Z,14.42
2023-03-30T09:16:34.281Z,14.48
2023-03-30T09:17:34.252Z,14.49
2023-03-30T09:18:34.482Z,14.53
2023-03-30T09:19:34.283Z,14.52
2023-03-30T09:20:34.178Z,14.45
2023-03-30T09:21:34.233Z,14.36
2023-03-30T09:22:34.221Z,14.30
2023-03-30T09:23:34.199Z,14.26
2023-03-30T09:24:34.137Z,14.04
2023-03-30T09:25:34.166Z,13.83
2023-03-30T09:26:34.141Z,13.65
2023-03-30T09:27:34.241Z,13.53
2023-03-30T09:28:35.018Z,13.41
2023-03-30T09:29:34.093Z,13.28
2023-03-30T09:30:34.097Z,13.19
2023-03-30T09:31:34.095Z,13.13
2023-03-30T09:32:34.148Z,13.04
2023-03-30T09:33:34.031Z,13.01
2023-03-30T09:34:34.027Z,12.98
2023-03-30T09:35:34.114Z,12.94
2023-03-30T09:36:33.999Z,12.92
2023-03-30T09:37:33.973Z,12.91
2023-03-30T09:38:33.969Z,12.91
2023-03-30T09:39:34.087Z,12.87
2023-03-30T09:40:34.077Z,12.85
2023-03-30T09:41:33.948Z,12.84
2023-03-30T09:42:34.094Z,12.77
2023-03-30T09:43:34.147Z,12.70
2023-03-30T09:44:34.054Z,12.63
2023-03-30T09:45:35.540Z,12.43
2023-03-30T09:46:33.906Z,12.23
2023-03-30T09:47:33.932Z,12.15
2023-03-30T09:48:33.898Z,12.01
2023-03-30T09:49:33.878Z,11.85
2023-03-30T09:50:34.601Z,11.72
2023-03-30T09:51:33.821Z,11.64
2023-03-30T09:52:33.797Z,11.59
2023-03-30T09:53:33.791Z,11.54
2023-03-30T09:54:33.759Z,11.48
2023-03-30T09:55:33.901Z,11.48
2023-03-30T09:56:33.766Z,11.44
2023-03-30T09:57:33.856Z,11.45
2023-03-30T09:58:33.719Z,11.45
2023-03-30T09:59:33.728Z,11.42
2023-03-30T10:00:33.688Z,11.35
2023-03-30T10:01:33.733Z,11.31
2023-03-30T10:02:33.933Z,11.26
2023-03-30T10:03:33.865Z,11.20
2023-03-30T10:04:33.690Z,11.19
2023-03-30T10:05:33.643Z,11.21
2023-03-30T10:06:33.604Z,11.23
2023-03-30T10:07:33.627Z,11.26
2023-03-30T10:08:33.572Z,11.26
2023-03-30T10:09:33.572Z,11.24
2023-03-30T10:10:33.717Z,11.21
2023-03-30T10:11:33.529Z,11.21
2023-03-30T10:12:33.525Z,11.26
2023-03-30T10:13:33.536Z,11.30
2023-03-30T10:14:33.529Z,11.35
2023-03-30T10:15:33.551Z,11.36
2023-03-30T10:16:33.589Z,11.38
2023-03-30T10:17:33.514Z,11.41
2023-03-30T10:18:33.488Z,11.39
2023-03-30T10:19:36.187Z,11.36
2023-03-30T10:20:33.425Z,11.38
2023-03-30T10:21:33.446Z,11.42
2023-03-30T10:22:33.403Z,11.46
2023-03-30T10:23:33.474Z,11.51
2023-03-30T10:24:33.389Z,11.56
2023-03-30T10:25:36.459Z,11.57
2023-03-30T10:26:33.398Z,11.57
2023-03-30T10:27:33.330Z,11.59
2023-03-30T10:28:33.329Z,11.64
2023-03-30T10:29:33.477Z,11.70
2023-03-30T10:30:33.341Z,11.72
2023-03-30T10:31:33.273Z,11.74
2023-03-30T10:32:33.288Z,11.78
2023-03-30T10:33:33.306Z,11.87
2023-03-30T10:34:33.247Z,11.96
2023-03-30T10:35:33.256Z,12.04
2023-03-30T10:36:33.229Z,12.08
2023-03-30T10:37:33.355Z,12.13
2023-03-30T10:38:34.563Z,12.18
2023-03-30T10:39:43.383Z,12.21
2023-03-30T10:40:33.279Z,12.29
2023-03-30T10:41:33.170Z,12.33
2023-03-30T10:42:33.616Z,12.30
2023-03-30T10:43:33.918Z,12.34
2023-03-30T10:44:34.343Z,12.38
2023-03-30T10:45:33.308Z,12.41
2023-03-30T10:46:33.194Z,12.48
2023-03-30T10:47:33.147Z,12.54
2023-03-30T10:48:33.144Z,12.55
2023-03-30T10:49:33.218Z,12.55
2023-03-30T10:50:33.196Z,12.61
2023-03-30T10:51:33.093Z,12.63
2023-03-30T10:52:33.133Z,12.69
2023-03-30T10:53:33.073Z,12.77
2023-03-30T10:54:33.044Z,12.84
2023-03-30T10:55:33.044Z,12.89
2023-03-30T10:56:33.087Z,12.92
2023-03-30T10:57:33.067Z,12.94
2023-03-30T10:58:33.004Z,12.96
2023-03-30T10:59:33.076Z,12.99
2023-03-30T11:00:33.141Z,12.96
2023-03-30T11:01:33.295Z,13.06
2023-03-30T11:02:33.064Z,13.12
2023-03-30T11:03:33.225Z,13.22
2023-03-30T11:04:32.901Z,13.25
2023-03-30T11:05:33.158Z,13.28
2023-03-30T11:06:32.844Z,13.38
2023-03-30T11:07:32.943Z,13.38
2023-03-30T11:08:32.857Z,13.43
2023-03-30T11:09:33.050Z,13.53
2023-03-30T11:10:32.863Z,13.53
2023-03-30T11:11:32.837Z,13.61
2023-03-30T11:12:32.837Z,13.68
2023-03-30T11:13:32.877Z,13.73
2023-03-30T11:14:32.743Z,13.83
2023-03-30T11:15:32.699Z,13.87
2023-03-30T11:16:32.799Z,13.84
2023-03-30T11:17:32.852Z,13.83
2023-03-30T11:18:32.688Z,13.76
2023-03-30T11:19:32.699Z,13.75
2023-03-30T11:20:32.664Z,13.79
2023-03-30T11:21:32.620Z,13.81
2023-03-30T11:22:33.652Z,13.81
2023-03-30T11:23:32.653Z,13.76
2023-03-30T11:24:32.635Z,13.76
2023-03-30T11:25:32.595Z,13.73
2023-03-30T11:26:32.574Z,13.76
2023-03-30T11:27:32.533Z,13.73
2023-03-30T11:28:33.013Z,13.76
2023-03-30T11:29:32.558Z,13.76
2023-03-30T11:30:32.597Z,13.76
2023-03-30T11:31:32.562Z,13.76
2023-03-30T11:32:32.541Z,13.76
2023-03-30T11:33:32.477Z,13.80
2023-03-30T11:34:32.497Z,13.87
2023-03-30T11:35:32.473Z,13.96
2023-03-30T11:36:32.497Z,14.02
2023-03-30T11:37:32.493Z,14.11
2023-03-30T11:38:32.466Z,14.19
2023-03-30T11:39:33.049Z,14.26
2023-03-30T11:40:32.618Z,14.31
2023-03-30T11:41:32.358Z,14.29
2023-03-30T11:42:32.385Z,14.24
2023-03-30T11:43:32.326Z,14.21
2023-03-30T11:44:32.403Z,14.16
2023-03-30T11:45:32.360Z,14.16
2023-03-30T11:46:32.336Z,14.09
2023-03-30T11:47:32.334Z,14.06
2023-03-30T11:48:32.319Z,14.11
2023-03-30T11:49:32.661Z,14.17
2023-03-30T11:50:32.287Z,14.23
2023-03-30T11:51:32.221Z,14.19
2023-03-30T11:52:32.254Z,14.21
2023-03-30T11:53:32.210Z,14.31
2023-03-30T11:54:32.377Z,14.42
2023-03-30T11:55:32.213Z,14.53
2023-03-30T11:56:32.232Z,14.59
2023-03-30T11:57:32.170Z,14.56
2023-03-30T11:58:32.161Z,14.53
2023-03-30T11:59:32.128Z,14.49
2023-03-30T12:00:32.260Z,14.56
2023-03-30T12:01:32.128Z,14.57
2023-03-30T12:02:32.156Z,14.61
2023-03-30T12:03:32.234Z,14.61
2023-03-30T12:04:32.131Z,14.64
2023-03-30T12:05:32.112Z,14.64
2023-03-30T12:06:32.105Z,14.71
2023-03-30T12:07:32.011Z,14.79
2023-03-30T12:08:32.048Z,14.87
2023-03-30T12:09:32.049Z,15.01
2023-03-30T12:10:32.073Z,15.12
2023-03-30T12:11:39.959Z,15.20
2023-03-30T12:12:39.594Z,15.23
2023-03-30T12:13:44.530Z,15.28
2023-03-30T12:14:32.979Z,15.23
2023-03-30T12:15:32.000Z,15.22
2023-03-30T12:16:32.024Z,15.25
2023-03-30T12:17:31.947Z,15.20
2023-03-30T12:18:31.892Z,15.20
2023-03-30T12:19:34.292Z,15.15
2023-03-30T12:20:32.894Z,15.04
2023-03-30T12:21:31.855Z,14.94
2023-03-30T12:22:31.883Z,14.83
2023-03-30T12:23:31.843Z,14.74
2023-03-30T12:24:31.893Z,14.71
2023-03-30T12:25:31.813Z,14.66
2023-03-30T12:26:31.797Z,14.61
2023-03-30T12:27:31.804Z,14.56
2023-03-30T12:28:44.217Z,14.44
2023-03-30T12:30:00.927Z,14.35
2023-03-30T12:30:32.760Z,14.21
2023-03-30T12:31:31.745Z,14.13
2023-03-30T12:32:31.820Z,14.02
2023-03-30T12:33:31.693Z,13.88
2023-03-30T12:34:32.005Z,13.81
2023-03-30T12:35:31.800Z,13.73
2023-03-30T12:36:31.711Z,13.66
2023-03-30T12:37:31.736Z,13.62
2023-03-30T12:38:31.958Z,13.54
2023-03-30T12:39:31.676Z,13.50
2023-03-30T12:40:31.639Z,13.46
2023-03-30T12:41:31.610Z,13.46
2023-03-30T12:42:31.619Z,13.46
2023-03-30T12:43:31.565Z,13.46
2023-03-30T12:44:31.617Z,13.47
2023-03-30T12:45:31.685Z,13.48
2023-03-30T12:46:31.669Z,13.47
2023-03-30T12:47:31.557Z,13.48
2023-03-30T12:48:31.513Z,13.51
2023-03-30T12:49:31.511Z,13.59
2023-03-30T12:50:31.516Z,13.65
2023-03-30T12:51:31.482Z,13.69
2023-03-30T12:52:31.493Z,13.71
2023-03-30T12:53:31.450Z,13.69